Terminal Aerodrome Forecast
Issued by NWS North Platte, NE

Home | Current Version | Previous Version | Text Only | Print | Product List | Glossary On
Versions: 1 2 3 4 5 6 7 8 9 10 11 12 13 14 15
000
FTUS43 KLBF 042320
TAFLBF
TAF
KLBF 042320Z 0500/0524 17008KT P6SM FEW120 BKN250
     FM051600 17014G22KT P6SM SCT100 BKN250 PROB30 0521/0524 3SM
      TSRA BKN070CB=

USA.gov is the U.S. government's official web portal to all federal, state and local government web resources and services.